Time;durP1;ratioP1;P1;durP2;ratioP2;P2;SDS_P1;SDS_P2;PMS_P1;PMS_P2;Temp;Humidity;BMP_temperature;BMP_pressure;BME280_temperature;BME280_humidity;BME280_pressure;Samples;Min_cycle;Max_cycle;Signal;HPM_P1;HPM_P2
2023/05/02 00:00:53;;;;;;;14.52;13.35;;;9.20;99.90;;;10.14;100.00;97999.41;5119741;28;20207;-61
2023/05/02 00:03:26;;;;;;;12.88;11.88;;;9.20;99.90;;;10.13;100.00;97995.09;5116505;28;20633;-62
2023/05/02 00:06:00;;;;;;;13.02;11.95;;;9.20;99.90;;;10.08;100.00;97994.81;5111261;29;20278;-62
2023/05/02 00:08:33;;;;;;;13.95;12.85;;;9.20;99.90;;;9.98;100.00;97991.59;5152292;28;20214;-66
2023/05/02 00:11:06;;;;;;;13.30;12.10;;;9.10;99.90;;;9.97;100.00;97997.50;5111294;28;20684;-61
2023/05/02 00:13:39;;;;;;;13.17;12.07;;;9.10;99.90;;;9.82;100.00;97990.66;5119060;28;20303;-62
2023/05/02 00:16:13;;;;;;;12.25;11.25;;;9.00;99.90;;;9.83;100.00;97989.88;5114078;28;20212;-62
2023/05/02 00:18:46;;;;;;;12.98;11.75;;;9.00;99.90;;;9.84;100.00;97990.75;5118878;28;20235;-62
2023/05/02 00:21:19;;;;;;;11.63;10.75;;;9.00;99.90;;;9.89;100.00;98000.44;5119938;28;20201;-60
2023/05/02 00:23:52;;;;;;;11.43;10.52;;;9.00;99.90;;;9.88;100.00;97988.47;5117341;28;20216;-62
2023/05/02 00:26:25;;;;;;;10.77;9.98;;;9.00;99.90;;;9.85;100.00;97990.84;5116264;28;20215;-61
2023/05/02 00:28:59;;;;;;;11.23;10.27;;;9.00;99.90;;;9.84;100.00;97994.22;5113931;28;20296;-63
2023/05/02 00:31:34;;;;;;;10.40;9.60;;;9.00;99.90;;;9.84;100.00;97995.84;5118891;28;20291;-61
2023/05/02 00:34:07;;;;;;;10.98;10.05;;;9.00;99.90;;;9.82;100.00;97993.22;5110759;28;20201;-61
2023/05/02 00:36:40;;;;;;;11.68;10.55;;;8.90;99.90;;;9.79;100.00;98000.69;5117964;29;20212;-61
2023/05/02 00:39:13;;;;;;;10.63;9.70;;;8.90;99.90;;;9.77;100.00;97994.59;5118228;28;20232;-64
2023/05/02 00:41:46;;;;;;;10.70;9.80;;;8.90;99.90;;;9.75;100.00;97993.59;5115849;28;20670;-62
2023/05/02 00:44:19;;;;;;;11.43;10.53;;;8.90;99.90;;;9.72;100.00;97990.88;5113413;29;20220;-62
2023/05/02 00:46:54;;;;;;;10.77;9.88;;;8.80;99.90;;;9.73;100.00;97992.66;5110998;28;20205;-62
2023/05/02 00:49:27;;;;;;;10.73;9.87;;;8.90;99.90;;;9.76;100.00;97987.72;5105634;28;20756;-59
2023/05/02 00:52:01;;;;;;;10.57;9.68;;;8.90;99.90;;;9.71;100.00;97989.13;5105416;28;20204;-61
2023/05/02 00:54:34;;;;;;;10.87;10.07;;;8.80;99.90;;;9.68;100.00;97988.94;5116293;29;20216;-61
2023/05/02 00:57:07;;;;;;;10.20;9.40;;;8.80;99.90;;;9.69;100.00;97994.09;5114399;28;20204;-63
2023/05/02 00:59:40;;;;;;;10.93;10.03;;;8.80;99.90;;;9.64;100.00;97987.84;5109329;28;20605;-63
2023/05/02 01:02:28;;;;;;;10.17;9.37;;;8.80;99.90;;;9.64;100.00;97994.59;5113708;28;20212;-61
2023/05/02 01:05:11;;;;;;;11.13;10.07;;;8.80;99.90;;;9.62;100.00;97998.75;5112063;28;20201;-61
2023/05/02 01:08:08;;;;;;;10.67;9.83;;;8.80;99.90;;;9.64;100.00;98002.25;5115525;28;20228;-61
2023/05/02 01:10:53;;;;;;;10.57;9.77;;;8.80;99.90;;;9.63;100.00;98000.50;5117402;28;20223;-62
2023/05/02 01:13:31;;;;;;;9.60;8.77;;;8.70;99.90;;;9.58;100.00;98004.44;5114183;28;20236;-61
2023/05/02 01:16:07;;;;;;;10.20;9.43;;;8.70;99.90;;;9.55;100.00;98000.00;5107281;29;20197;-66
2023/05/02 01:18:44;;;;;;;10.33;9.43;;;8.60;99.90;;;9.47;100.00;98012.31;5115123;28;20227;-64
2023/05/02 01:21:17;;;;;;;10.13;9.37;;;8.60;99.90;;;9.43;100.00;98017.97;5112000;28;20204;-61
2023/05/02 01:24:03;;;;;;;10.10;9.20;;;8.50;99.90;;;9.41;100.00;98013.56;5112128;28;20209;-63
2023/05/02 01:27:01;;;;;;;10.07;9.27;;;8.50;99.90;;;9.39;100.00;98025.38;5116528;29;20779;-63
2023/05/02 01:29:37;;;;;;;9.80;8.90;;;8.50;99.90;;;9.39;100.00;98021.13;5105766;28;20225;-61
2023/05/02 01:32:12;;;;;;;9.67;8.77;;;8.50;99.90;;;9.34;100.00;98019.06;5110970;28;20584;-64
2023/05/02 01:34:48;;;;;;;9.87;9.17;;;8.40;99.90;;;9.27;100.00;98015.25;5114411;28;20591;-61
2023/05/02 01:37:24;;;;;;;9.97;9.07;;;8.30;99.90;;;9.21;100.00;98019.94;5118279;28;20204;-63
2023/05/02 01:39:58;;;;;;;9.70;8.90;;;8.30;99.90;;;9.20;100.00;98018.19;5116937;28;20719;-62
2023/05/02 01:42:36;;;;;;;9.63;8.90;;;8.30;99.90;;;9.19;100.00;98019.84;5111299;28;20577;-63
2023/05/02 01:45:12;;;;;;;10.50;9.53;;;8.30;99.90;;;9.16;100.00;98011.13;5111513;29;20209;-61
2023/05/02 01:47:47;;;;;;;9.83;8.97;;;8.30;99.90;;;9.15;100.00;98019.53;5108728;28;20591;-61
2023/05/02 01:50:24;;;;;;;10.10;9.20;;;8.30;99.90;;;9.16;100.00;98023.88;5111804;28;20279;-61
2023/05/02 01:53:00;;;;;;;10.73;9.83;;;8.30;99.90;;;9.17;100.00;98023.09;5114907;29;20215;-65
2023/05/02 01:55:36;;;;;;;10.67;9.63;;;8.30;99.90;;;9.14;100.00;98026.31;5115933;28;20211;-62
2023/05/02 01:58:10;;;;;;;11.17;10.27;;;8.30;99.90;;;9.15;100.00;98024.63;5111331;28;20207;-62
2023/05/02 02:00:46;;;;;;;10.70;9.80;;;8.30;99.90;;;9.08;100.00;98022.50;5116862;28;20227;-64
2023/05/02 02:03:21;;;;;;;11.10;10.20;;;8.20;99.90;;;9.05;100.00;98032.50;5107016;28;20197;-62
2023/05/02 02:05:56;;;;;;;10.60;9.77;;;8.20;99.90;;;9.03;100.00;98034.94;5109223;28;20247;-63
2023/05/02 02:08:29;;;;;;;10.90;10.00;;;8.20;99.90;;;9.05;100.00;98038.47;5116133;29;20235;-61
2023/05/02 02:11:11;;;;;;;10.87;9.97;;;8.20;99.90;;;9.01;100.00;98037.38;5115096;28;20343;-63
2023/05/02 02:13:50;;;;;;;11.30;10.23;;;8.10;99.90;;;9.00;100.00;98040.69;5112461;28;20780;-63
2023/05/02 02:16:29;;;;;;;10.40;9.60;;;8.20;99.90;;;8.97;100.00;98044.72;5115143;28;20246;-62
2023/05/02 02:19:07;;;;;;;10.97;10.07;;;8.10;99.90;;;8.97;100.00;98043.06;5115339;28;20224;-63
2023/05/02 02:21:43;;;;;;;10.00;9.10;;;8.10;99.90;;;8.94;100.00;98045.41;5110598;29;20212;-62
2023/05/02 02:24:18;;;;;;;9.20;8.50;;;8.10;99.90;;;8.87;100.00;98050.88;5114296;28;20219;-63
2023/05/02 02:26:51;;;;;;;10.63;9.63;;;8.00;99.90;;;8.86;100.00;98046.56;5112930;28;20204;-63
2023/05/02 02:29:24;;;;;;;10.43;9.50;;;8.00;99.90;;;8.85;100.00;98051.56;5111791;28;20239;-61
2023/05/02 02:31:59;;;;;;;9.63;8.83;;;8.00;99.90;;;8.86;100.00;98060.97;5111079;28;20592;-63
2023/05/02 02:34:32;;;;;;;9.57;8.70;;;7.90;99.90;;;8.83;100.00;98055.66;5117735;28;20691;-63
2023/05/02 02:37:14;;;;;;;10.77;9.67;;;7.90;99.90;;;8.82;100.00;98064.09;5112833;28;20668;-63
2023/05/02 02:40:00;;;;;;;10.17;9.30;;;7.90;99.90;;;8.83;100.00;98060.75;5113759;28;20228;-62
2023/05/02 02:42:41;;;;;;;10.73;9.87;;;8.00;99.90;;;8.76;100.00;98065.47;5109006;28;20734;-63
2023/05/02 02:45:27;;;;;;;10.00;9.10;;;7.90;99.90;;;8.75;100.00;98070.44;5112168;28;20213;-63
2023/05/02 02:48:15;;;;;;;10.20;9.40;;;7.90;99.90;;;8.71;100.00;98069.34;5114130;28;20209;-63
2023/05/02 02:51:14;;;;;;;9.97;9.10;;;7.80;99.90;;;8.64;100.00;98069.72;5110185;28;20582;-63
2023/05/02 02:53:58;;;;;;;8.70;8.00;;;7.70;99.90;;;8.63;100.00;98077.25;5117078;28;20224;-63
2023/05/02 02:56:38;;;;;;;9.33;8.53;;;7.70;99.90;;;8.59;100.00;98076.19;5106834;29;20208;-62
2023/05/02 02:59:19;;;;;;;9.43;8.67;;;7.70;99.90;;;8.55;100.00;98079.28;5116983;28;20251;-62
2023/05/02 03:02:02;;;;;;;9.63;8.83;;;7.70;99.90;;;8.56;100.00;98088.72;5115072;29;20212;-62
2023/05/02 03:04:40;;;;;;;8.77;8.07;;;7.70;99.90;;;8.52;100.00;98089.25;5109156;28;20204;-62
2023/05/02 03:07:13;;;;;;;9.40;8.70;;;7.70;99.90;;;8.49;100.00;98092.47;5114232;28;20293;-62
2023/05/02 03:09:48;;;;;;;8.67;7.97;;;7.60;99.90;;;8.44;100.00;98091.31;5115713;29;20684;-63
2023/05/02 03:12:21;;;;;;;10.13;9.23;;;7.50;99.90;;;8.41;100.00;98095.28;5116468;28;20206;-63
2023/05/02 03:15:05;;;;;;;10.30;9.40;;;7.50;99.90;;;8.41;100.00;98098.69;5117045;28;20204;-63
2023/05/02 03:17:38;;;;;;;9.03;8.33;;;7.50;99.90;;;8.41;100.00;98100.38;5106983;28;20680;-62
2023/05/02 03:20:12;;;;;;;9.97;9.27;;;7.50;99.90;;;8.41;100.00;98101.25;5112635;28;20278;-63
2023/05/02 03:22:45;;;;;;;8.87;8.23;;;7.50;99.90;;;8.37;100.00;98104.34;5115207;28;20232;-63
2023/05/02 03:25:18;;;;;;;9.90;9.10;;;7.50;99.90;;;8.41;100.00;98106.34;5118617;28;20207;-63
2023/05/02 03:27:52;;;;;;;9.67;8.87;;;7.50;99.90;;;8.43;100.00;98107.34;5113437;28;20217;-63
2023/05/02 03:30:25;;;;;;;9.20;8.43;;;7.60;99.90;;;8.46;100.00;98115.19;5115695;28;20211;-63
2023/05/02 03:32:59;;;;;;;10.53;9.73;;;7.60;99.90;;;8.45;100.00;98118.53;5119846;28;20204;-63
2023/05/02 03:35:33;;;;;;;9.57;8.70;;;7.60;99.90;;;8.42;100.00;98118.31;5119957;29;20258;-63
2023/05/02 03:38:06;;;;;;;10.10;9.30;;;7.60;99.90;;;8.47;100.00;98122.06;5113861;28;20923;-63
2023/05/02 03:40:39;;;;;;;9.30;8.60;;;7.60;99.90;;;8.49;100.00;98119.63;5116753;28;20232;-63
2023/05/02 03:43:12;;;;;;;10.33;9.53;;;7.70;99.90;;;8.48;100.00;98123.84;5121812;28;20201;-63
2023/05/02 03:45:45;;;;;;;10.03;9.13;;;7.70;99.90;;;8.50;100.00;98126.50;5115917;28;20270;-62
2023/05/02 03:48:20;;;;;;;9.43;8.73;;;7.70;99.90;;;8.54;100.00;98129.34;5111055;28;20315;-63
2023/05/02 03:50:55;;;;;;;10.73;9.73;;;7.60;99.90;;;8.51;100.00;98129.13;5115038;29;20589;-63
2023/05/02 03:53:29;;;;;;;10.40;9.60;;;7.70;99.90;;;8.54;100.00;98138.66;5118133;28;20322;-63
2023/05/02 03:56:02;;;;;;;11.10;10.10;;;7.80;99.90;;;8.55;100.00;98136.19;5112803;28;20197;-62
2023/05/02 03:58:36;;;;;;;11.13;10.17;;;7.70;99.90;;;8.57;100.00;98144.84;5114807;28;20232;-63
2023/05/02 04:01:14;;;;;;;10.83;9.83;;;7.70;99.90;;;8.64;100.00;98135.97;5113952;28;20209;-62
2023/05/02 04:03:47;;;;;;;11.10;10.10;;;7.70;99.90;;;8.67;100.00;98151.47;5114647;29;20211;-63
2023/05/02 04:06:22;;;;;;;10.50;9.70;;;7.70;99.90;;;8.68;100.00;98157.44;5113271;28;20700;-63
2023/05/02 04:08:56;;;;;;;10.20;9.20;;;7.80;99.90;;;8.67;100.00;98155.66;5109925;29;20224;-62
2023/05/02 04:11:29;;;;;;;11.27;10.20;;;7.80;99.90;;;8.75;100.00;98157.06;5110598;28;20671;-62
2023/05/02 04:14:03;;;;;;;11.30;10.23;;;7.80;99.90;;;8.77;100.00;98160.63;5110382;28;20215;-64
2023/05/02 04:16:36;;;;;;;11.80;10.70;;;7.80;99.90;;;8.71;100.00;98163.63;5111804;28;20200;-61
2023/05/02 04:19:10;;;;;;;11.70;10.60;;;7.90;99.90;;;8.72;100.00;98159.41;5113109;28;20225;-65
2023/05/02 04:21:45;;;;;;;11.23;10.17;;;7.90;99.90;;;8.72;100.00;98167.06;5116085;28;20225;-63
2023/05/02 04:24:18;;;;;;;11.33;10.33;;;7.80;99.90;;;8.76;100.00;98171.63;5114320;28;20197;-60
2023/05/02 04:26:51;;;;;;;12.73;11.50;;;7.90;99.90;;;8.76;100.00;98177.59;5116898;28;20330;-62
2023/05/02 04:29:24;;;;;;;13.00;11.80;;;7.90;99.90;;;8.89;100.00;98176.75;5118361;28;20236;-62
2023/05/02 04:31:57;;;;;;;13.40;12.10;;;7.90;99.90;;;8.99;100.00;98176.63;5119695;28;21399;-62
2023/05/02 04:34:30;;;;;;;12.53;11.33;;;7.90;99.90;;;8.96;100.00;98186.59;5116167;28;20209;-64
2023/05/02 04:37:05;;;;;;;12.30;11.20;;;7.90;99.90;;;8.93;100.00;98193.16;5113937;28;20204;-62
2023/05/02 04:39:38;;;;;;;13.47;12.17;;;8.00;99.90;;;8.85;100.00;98195.19;5117261;28;20322;-62
2023/05/02 04:42:11;;;;;;;13.47;11.93;;;7.90;99.90;;;8.80;100.00;98193.97;5118067;28;20224;-63
2023/05/02 04:44:44;;;;;;;12.70;11.50;;;7.90;99.90;;;8.75;100.00;98203.81;5117560;28;20205;-62
2023/05/02 04:47:17;;;;;;;13.13;11.67;;;7.90;99.90;;;8.75;100.00;98197.84;5115078;28;20688;-62
2023/05/02 04:49:49;;;;;;;13.10;11.73;;;7.80;99.90;;;8.83;100.00;98199.28;5113989;28;20221;-64
2023/05/02 04:52:24;;;;;;;15.23;13.67;;;7.90;99.90;;;8.76;100.00;98203.06;5142969;28;20210;-64
2023/05/02 04:54:57;;;;;;;15.97;13.70;;;7.80;99.90;;;8.74;100.00;98199.53;5117260;28;20640;-61
2023/05/02 04:57:30;;;;;;;15.30;13.80;;;7.90;99.90;;;8.74;100.00;98203.75;5116557;28;20208;-63
2023/05/02 05:00:04;;;;;;;13.57;12.27;;;7.80;99.90;;;8.71;100.00;98209.50;5110602;28;20232;-68
2023/05/02 05:02:37;;;;;;;14.13;12.73;;;7.90;99.90;;;8.77;100.00;98206.50;5110918;28;20597;-62
2023/05/02 05:05:11;;;;;;;14.33;12.97;;;7.90;99.90;;;8.81;100.00;98208.47;5109420;28;20201;-67
2023/05/02 05:07:45;;;;;;;15.27;13.07;;;7.90;99.90;;;8.83;100.00;98214.56;5106255;28;20262;-64
2023/05/02 05:10:18;;;;;;;15.20;13.33;;;7.90;99.90;;;8.83;100.00;98212.00;5112026;28;20258;-62
2023/05/02 05:12:52;;;;;;;14.67;12.90;;;7.90;99.90;;;8.96;100.00;98211.22;5109951;28;20203;-62
2023/05/02 05:15:26;;;;;;;14.63;12.80;;;8.00;99.90;;;9.10;100.00;98218.16;5112636;28;20369;-63
2023/05/02 05:17:59;;;;;;;14.33;12.83;;;8.10;99.90;;;9.11;100.00;98216.47;5110177;28;20212;-64
2023/05/02 05:20:32;;;;;;;15.57;13.90;;;8.10;99.90;;;9.03;100.00;98219.38;5111472;28;20694;-63
2023/05/02 05:23:06;;;;;;;13.40;12.00;;;8.10;99.90;;;9.11;100.00;98226.69;5113684;28;20239;-65
2023/05/02 05:25:40;;;;;;;15.47;13.87;;;8.20;99.90;;;9.18;100.00;98223.75;5114217;28;20286;-65
2023/05/02 05:28:15;;;;;;;15.27;13.70;;;8.20;99.90;;;9.25;100.00;98224.28;5107744;28;20228;-64
2023/05/02 05:30:48;;;;;;;14.27;12.77;;;8.30;99.90;;;9.43;100.00;98229.72;5109217;29;20205;-63
2023/05/02 05:33:21;;;;;;;14.20;12.33;;;8.50;99.90;;;9.68;100.00;98236.50;5103383;28;20778;-62
2023/05/02 05:35:54;;;;;;;11.47;10.37;;;8.70;99.90;;;9.81;100.00;98239.03;5113304;28;20866;-62
2023/05/02 05:38:28;;;;;;;11.77;10.67;;;8.80;99.90;;;9.97;100.00;98238.41;5115243;28;20235;-62
2023/05/02 05:41:01;;;;;;;12.07;10.97;;;9.00;99.90;;;10.12;100.00;98241.06;5114792;28;20219;-63
2023/05/02 05:43:35;;;;;;;11.57;10.43;;;9.00;99.90;;;10.36;100.00;98239.25;5106626;28;20217;-62
2023/05/02 05:46:10;;;;;;;11.85;10.73;;;9.20;99.90;;;10.58;100.00;98238.91;5106351;28;20205;-62
2023/05/02 05:48:43;;;;;;;11.38;10.38;;;9.40;99.90;;;10.74;100.00;98253.56;5112275;28;20233;-63
2023/05/02 05:51:16;;;;;;;10.20;9.27;;;9.60;99.90;;;10.91;99.76;98252.06;5109259;28;20217;-62
2023/05/02 05:53:50;;;;;;;10.30;9.40;;;9.70;99.90;;;11.09;99.82;98259.97;5106725;28;20595;-63
2023/05/02 05:56:23;;;;;;;10.63;9.73;;;9.90;99.90;;;11.18;99.15;98258.84;5106341;28;20208;-67
2023/05/02 05:58:56;;;;;;;12.63;10.88;;;10.00;99.90;;;11.23;97.39;98257.47;5111786;28;20252;-62
2023/05/02 06:01:30;;;;;;;11.60;10.60;;;9.90;99.90;;;11.10;98.57;98265.16;5111159;28;20675;-63
2023/05/02 06:04:03;;;;;;;11.95;10.85;;;9.80;99.90;;;10.97;99.10;98275.44;5107439;28;20211;-62
2023/05/02 06:06:37;;;;;;;11.07;10.07;;;9.70;99.90;;;11.01;98.76;98278.28;5115026;28;20224;-62
2023/05/02 06:09:11;;;;;;;11.63;10.55;;;9.70;99.90;;;10.94;99.22;98285.50;5111931;28;20228;-66
2023/05/02 06:11:45;;;;;;;10.10;9.20;;;9.70;99.90;;;10.92;99.41;98279.38;5108504;28;20204;-64
2023/05/02 06:14:18;;;;;;;10.77;9.93;;;9.70;99.90;;;10.89;99.70;98280.06;5111364;29;20212;-66
2023/05/02 06:16:51;;;;;;;10.70;9.70;;;9.80;99.90;;;11.01;99.26;98287.63;5112333;28;20212;-62
2023/05/02 06:19:24;;;;;;;10.13;9.13;;;9.80;99.90;;;11.13;98.61;98288.41;5102232;28;20333;-62
2023/05/02 06:21:57;;;;;;;10.30;9.40;;;9.80;99.90;;;11.10;99.44;98293.31;5116128;28;20345;-63
2023/05/02 06:24:31;;;;;;;10.60;9.70;;;10.00;99.90;;;11.20;100.00;98294.78;5106433;28;20592;-62
2023/05/02 06:27:04;;;;;;;9.82;8.88;;;10.10;99.90;;;11.39;99.91;98299.31;5111999;28;20716;-62
2023/05/02 06:29:37;;;;;;;10.68;9.77;;;10.30;99.90;;;11.45;98.43;98304.84;5102330;29;20241;-63
2023/05/02 06:32:10;;;;;;;10.68;9.77;;;10.30;99.90;;;11.49;97.90;98304.22;5105207;28;20201;-62
2023/05/02 06:34:43;;;;;;;9.65;8.85;;;10.30;99.90;;;11.47;98.93;98301.59;5116694;28;20209;-63
2023/05/02 06:37:16;;;;;;;10.70;9.90;;;10.40;99.90;;;11.72;97.08;98313.28;5109524;28;20200;-61
2023/05/02 06:39:50;;;;;;;10.45;9.55;;;10.40;99.90;;;11.68;97.93;98309.66;5106258;28;20307;-62
2023/05/02 06:42:23;;;;;;;10.65;9.65;;;10.50;99.90;;;11.70;98.49;98313.22;5111986;28;20227;-64
2023/05/02 06:44:56;;;;;;;10.30;9.40;;;10.50;99.90;;;11.85;97.58;98312.34;5103385;28;20213;-65
2023/05/02 06:47:29;;;;;;;50.17;33.72;;;10.50;99.90;;;11.85;98.79;98320.03;5109039;28;20208;-65
2023/05/02 06:50:03;;;;;;;14.85;13.35;;;10.70;99.90;;;12.07;98.02;98314.50;5117388;28;20232;-63
2023/05/02 06:52:36;;;;;;;19.70;15.55;;;10.80;99.90;;;12.14;97.41;98322.66;5141687;28;20228;-62
2023/05/02 06:55:10;;;;;;;12.55;11.23;;;10.90;99.90;;;12.15;97.55;98321.84;5106661;28;20205;-66
2023/05/02 06:57:43;;;;;;;10.80;9.88;;;10.90;99.90;;;12.38;96.06;98318.06;5110311;28;20593;-62
2023/05/02 07:00:17;;;;;;;9.93;9.13;;;10.90;99.90;;;12.35;96.49;98323.00;5110002;28;20530;-65
2023/05/02 07:02:50;;;;;;;13.85;12.75;;;11.10;99.90;;;12.43;96.68;98322.56;5111736;28;20221;-62
2023/05/02 07:05:23;;;;;;;49.92;44.75;;;11.20;99.90;;;12.52;97.25;98326.53;5114970;28;20208;-64
2023/05/02 07:07:56;;;;;;;46.15;38.08;;;11.30;99.90;;;12.68;96.45;98338.56;5110226;28;20219;-62
2023/05/02 07:10:30;;;;;;;12.93;11.82;;;11.40;99.90;;;12.90;93.62;98326.91;5110232;28;20220;-67
2023/05/02 07:13:03;;;;;;;11.35;10.45;;;11.50;99.90;;;12.94;93.67;98334.88;5114079;28;20196;-63
2023/05/02 07:15:36;;;;;;;10.38;9.57;;;11.70;99.90;;;13.06;93.64;98343.25;5113782;28;20211;-62
2023/05/02 07:18:09;;;;;;;10.90;10.00;;;11.90;99.90;;;13.19;92.49;98343.91;5116185;28;20205;-65
2023/05/02 07:20:42;;;;;;;11.40;10.48;;;12.00;99.90;;;13.22;92.62;98342.41;5109631;28;20675;-62
2023/05/02 07:23:15;;;;;;;10.93;10.07;;;12.00;99.90;;;13.40;91.00;98345.13;5113117;28;20243;-66
2023/05/02 07:25:50;;;;;;;10.95;10.05;;;12.10;99.90;;;13.35;90.95;98343.09;5116294;28;20583;-65
2023/05/02 07:28:23;;;;;;;10.13;9.23;;;12.10;99.90;;;13.34;89.59;98334.53;5122332;28;20234;-63
2023/05/02 07:30:56;;;;;;;10.32;9.52;;;12.20;99.90;;;13.28;91.04;98339.34;5114948;28;20208;-62
2023/05/02 07:33:29;;;;;;;10.65;9.85;;;12.10;99.90;;;13.24;91.62;98343.34;5117741;28;20205;-62
2023/05/02 07:36:02;;;;;;;11.77;10.85;;;12.10;99.90;;;13.26;91.10;98343.50;5123908;28;20778;-63
2023/05/02 07:38:35;;;;;;;10.75;9.95;;;12.00;99.90;;;13.39;89.34;98347.59;5110161;28;20505;-62
2023/05/02 07:41:09;;;;;;;11.18;10.27;;;12.00;99.90;;;13.40;89.19;98346.81;5115258;28;20291;-62
2023/05/02 07:43:42;;;;;;;10.85;10.05;;;12.10;99.90;;;13.32;90.45;98348.94;5114328;28;20231;-62
2023/05/02 07:46:15;;;;;;;11.23;10.27;;;12.10;99.90;;;13.50;89.92;98341.34;5110688;28;20576;-66
2023/05/02 07:48:48;;;;;;;11.43;10.45;;;12.20;99.90;;;13.48;89.44;98350.69;5116205;28;20259;-62
2023/05/02 07:51:21;;;;;;;11.02;10.18;;;12.30;99.90;;;13.52;89.13;98345.75;5116207;28;20212;-64
2023/05/02 07:53:57;;;;;;;11.35;10.45;;;12.30;99.90;;;13.58;88.52;98352.91;5108876;28;20201;-63
2023/05/02 07:56:32;;;;;;;11.88;10.98;;;12.30;99.90;;;13.77;86.35;98352.22;5111512;28;20208;-63
2023/05/02 07:59:05;;;;;;;12.27;11.27;;;12.30;99.90;;;13.66;86.96;98355.91;5115422;28;20223;-63
2023/05/02 08:01:38;;;;;;;12.15;11.18;;;12.40;99.90;;;13.68;87.15;98360.31;5111615;28;20205;-66
2023/05/02 08:04:11;;;;;;;12.85;11.77;;;12.40;99.90;;;13.64;87.37;98354.94;5107261;28;20221;-62
2023/05/02 08:06:45;;;;;;;12.45;11.35;;;12.40;99.90;;;13.68;88.23;98354.31;5114336;28;20208;-62
2023/05/02 08:09:18;;;;;;;13.60;12.30;;;12.50;99.90;;;13.71;87.40;98362.16;5117380;28;20688;-63
2023/05/02 08:11:52;;;;;;;12.02;11.02;;;12.40;99.90;;;13.66;86.65;98353.34;5115346;28;20217;-62
2023/05/02 08:14:25;;;;;;;12.27;11.27;;;12.50;99.90;;;13.95;86.42;98362.56;5122663;28;20576;-63
2023/05/02 08:16:58;;;;;;;12.32;11.32;;;12.60;99.90;;;14.05;86.50;98357.09;5115301;28;20411;-69
2023/05/02 08:19:31;;;;;;;12.07;10.98;;;12.80;99.90;;;14.38;83.32;98363.06;5114614;28;20286;-63
2023/05/02 08:22:04;;;;;;;13.30;12.13;;;13.10;99.90;;;14.48;82.39;98360.94;5112098;28;20656;-62
2023/05/02 08:24:37;;;;;;;12.90;11.75;;;13.30;99.90;;;14.63;84.54;98366.88;5110410;28;20225;-62
2023/05/02 08:27:12;;;;;;;16.70;15.10;;;13.40;99.90;;;14.81;82.08;98372.91;5105901;28;20201;-62
2023/05/02 08:29:45;;;;;;;13.43;12.35;;;13.40;99.90;;;14.83;81.45;98376.47;5116617;28;20239;-64
2023/05/02 08:32:18;;;;;;;13.35;12.25;;;13.60;99.90;;;14.91;82.00;98376.84;5107388;28;20655;-63
2023/05/02 08:34:54;;;;;;;13.23;12.02;;;13.70;99.90;;;14.93;81.03;98374.31;5114949;28;20274;-62
2023/05/02 08:37:27;;;;;;;13.05;12.00;;;13.80;99.90;;;15.13;80.77;98380.44;5108497;28;20216;-62
2023/05/02 08:40:01;;;;;;;12.20;11.10;;;13.90;99.90;;;15.26;80.82;98378.50;5131247;28;20236;-63
2023/05/02 08:42:36;;;;;;;11.82;10.75;;;14.10;99.90;;;15.43;78.47;98383.56;5140848;28;20242;-66
2023/05/02 08:45:12;;;;;;;13.30;12.15;;;14.10;99.90;;;15.60;78.07;98381.78;5110216;28;20699;-62
2023/05/02 08:47:49;;;;;;;13.40;12.30;;;14.20;99.90;;;15.65;78.10;98388.00;5111631;29;20204;-63
2023/05/02 08:50:23;;;;;;;12.70;11.60;;;14.30;99.90;;;15.80;76.38;98387.88;5107069;28;20227;-64
2023/05/02 08:52:57;;;;;;;11.80;10.75;;;14.60;99.90;;;15.79;76.25;98386.09;5117869;28;20247;-62
2023/05/02 08:55:30;;;;;;;13.23;12.15;;;14.70;99.90;;;15.93;75.75;98390.16;5107626;28;20220;-63
2023/05/02 08:58:04;;;;;;;13.40;12.27;;;14.80;99.90;;;16.13;75.89;98393.63;5108820;28;20219;-65
2023/05/02 09:00:40;;;;;;;12.48;11.38;;;15.00;99.90;;;16.14;75.35;98390.25;5106389;28;20217;-63
2023/05/02 09:03:26;;;;;;;13.45;12.35;;;15.00;99.90;;;16.12;73.06;98386.72;5106971;28;20227;-63
2023/05/02 09:06:06;;;;;;;12.88;11.88;;;15.00;99.90;;;16.36;72.17;98387.75;5101773;28;20209;-62
2023/05/02 09:08:41;;;;;;;12.52;11.48;;;15.00;99.90;;;16.28;73.13;98389.16;5115890;28;20232;-65
2023/05/02 09:11:14;;;;;;;12.85;11.65;;;15.10;99.90;;;16.09;73.25;98395.19;5112755;29;20220;-65
2023/05/02 09:13:51;;;;;;;12.10;11.20;;;15.10;99.90;;;16.54;71.08;98398.00;5105330;28;20201;-62
2023/05/02 09:16:26;;;;;;;13.73;12.55;;;15.30;99.90;;;16.60;69.97;98394.78;5144872;28;20687;-64
2023/05/02 09:19:00;;;;;;;13.23;12.10;;;15.50;99.90;;;16.67;70.59;98400.25;5107913;28;20252;-62
2023/05/02 09:21:38;;;;;;;13.52;12.43;;;15.50;99.90;;;16.76;69.28;98398.88;5111474;28;20217;-63
2023/05/02 09:24:17;;;;;;;13.02;11.93;;;15.70;99.90;;;16.82;69.51;98399.16;5113914;28;20225;-65
2023/05/02 09:27:01;;;;;;;11.23;10.32;;;15.70;99.90;;;16.78;69.90;98402.44;5111200;28;20231;-62
2023/05/02 09:29:37;;;;;;;13.10;12.00;;;15.70;99.90;;;16.96;69.47;98402.31;5107042;28;20237;-63
2023/05/02 09:32:10;;;;;;;13.70;12.48;;;15.50;99.90;;;16.95;70.10;98409.19;5107038;28;20296;-62
2023/05/02 09:35:08;;;;;;;16.73;15.20;;;15.50;99.90;;;16.88;69.77;98400.31;5117657;28;20205;-63
2023/05/02 09:37:41;;;;;;;14.95;13.55;;;15.40;99.90;;;16.92;69.39;98403.91;5111871;28;20205;-63
2023/05/02 09:40:14;;;;;;;14.70;13.50;;;15.70;99.90;;;16.68;70.63;98401.13;5112818;28;20221;-63
2023/05/02 09:42:47;;;;;;;15.10;13.73;;;15.60;99.90;;;16.83;70.75;98401.81;5116446;28;20204;-64
2023/05/02 09:45:24;;;;;;;13.63;12.55;;;15.60;99.90;;;17.06;70.29;98397.59;5117958;28;20718;-63
2023/05/02 09:48:02;;;;;;;13.30;12.25;;;15.70;99.90;;;17.15;68.38;98393.63;5114378;28;20204;-66
2023/05/02 09:50:37;;;;;;;14.52;13.32;;;15.90;99.90;;;17.24;68.38;98393.97;5118724;28;20291;-63
2023/05/02 09:53:10;;;;;;;14.88;13.57;;;16.10;99.90;;;17.16;67.80;98396.25;5111814;28;20216;-66
2023/05/02 09:55:43;;;;;;;16.40;15.20;;;16.00;99.90;;;17.22;66.66;98395.59;5119008;28;20228;-62
2023/05/02 09:58:22;;;;;;;14.00;13.00;;;15.90;99.90;;;17.21;68.52;98386.97;5114355;28;20302;-64
2023/05/02 10:00:58;;;;;;;14.07;13.02;;;15.90;99.90;;;17.31;66.38;98391.69;5115415;28;20211;-63
2023/05/02 10:03:31;;;;;;;14.45;13.25;;;16.10;99.90;;;17.34;66.41;98386.66;5109463;28;20315;-62
2023/05/02 10:06:09;;;;;;;14.05;12.95;;;16.20;99.90;;;17.43;64.83;98386.13;5118041;28;20307;-62
2023/05/02 10:08:44;;;;;;;15.27;14.07;;;16.30;99.90;;;17.47;66.09;98387.97;5109991;28;20316;-65
2023/05/02 10:11:17;;;;;;;15.13;13.93;;;16.40;99.90;;;17.58;64.87;98387.53;5110327;28;20209;-64
2023/05/02 10:13:50;;;;;;;13.15;12.15;;;16.50;99.90;;;17.74;65.87;98390.75;5114309;28;20193;-65
2023/05/02 10:16:30;;;;;;;14.43;13.25;;;16.70;99.90;;;18.01;66.06;98388.31;5115683;28;20215;-63
2023/05/02 10:19:09;;;;;;;14.57;13.35;;;17.20;99.90;;;18.34;63.28;98392.03;5108329;28;20227;-64
2023/05/02 10:21:44;;;;;;;16.50;15.00;;;17.40;99.90;;;18.43;62.53;98382.91;5107656;28;20214;-65
2023/05/02 10:24:17;;;;;;;14.85;13.70;;;17.50;99.90;;;18.64;59.44;98389.63;5103799;28;20220;-64
2023/05/02 10:26:51;;;;;;;13.40;12.30;;;17.80;99.90;;;18.66;60.76;98385.41;5113380;28;20583;-64
2023/05/02 10:29:28;;;;;;;13.30;12.10;;;17.70;99.90;;;18.79;59.62;98390.19;5116772;28;20232;-64
2023/05/02 10:32:04;;;;;;;14.40;13.20;;;17.90;99.90;;;18.64;59.08;98392.22;5114239;28;20207;-64
2023/05/02 10:34:40;;;;;;;13.90;12.77;;;17.50;99.90;;;18.43;57.99;98385.50;5110460;28;20196;-64
2023/05/02 10:37:13;;;;;;;11.90;10.90;;;17.30;99.90;;;18.38;59.02;98389.63;5111143;28;20630;-65
2023/05/02 10:39:46;;;;;;;13.85;12.70;;;17.30;99.90;;;18.44;60.39;98379.47;5110344;28;20542;-64
2023/05/02 10:42:20;;;;;;;14.23;13.10;;;17.20;99.90;;;18.56;60.28;98378.13;5106604;28;20303;-64
2023/05/02 10:44:53;;;;;;;13.63;12.45;;;17.30;99.90;;;18.46;59.07;98383.00;5108411;28;20228;-63